Flight Track Log - Related Links

Times and Time Zones

All times are in EDT time to prevent confusion due to time zone crossing. See the G52651 flight status page for this flight to view local times or setup timezone preferences in your user account.

Time Position Orientation Groundspeed Altitude Reporting Facility
EDT Latitude Longitude Course Direction KTS MPH feet Rate Location/Type
Fri 09:35:00 PM 22.7359 108.6193 73° East  Level Estimated
Fri 09:36:00 PM 22.7570 108.6938 73° East  Level Estimated
Fri 09:37:00 PM 22.7781 108.7684 73° East  Level Estimated
Fri 09:38:00 PM 22.7992 108.8430 73° East  Level Estimated
Fri 09:39:00 PM 22.8161 108.9030 73° East  Level Estimated
Fri 09:40:00 PM 22.8330 108.9630 73° East  Level Estimated
Fri 09:41:00 PM 22.8499 109.0230 73° East  Level Estimated
Fri 09:42:00 PM 22.8668 109.0831 73° East  Level Estimated
Fri 09:43:00 PM 22.8836 109.1431 73° East  Level Estimated
Fri 09:44:00 PM 22.9004 109.2032 73° East  Level Estimated
Fri 09:45:00 PM 22.9172 109.2633 73° East  Level Estimated
Fri 09:46:00 PM 22.9340 109.3234 73° East  Level Estimated
Fri 09:47:00 PM 22.9507 109.3835 73° East  Level Estimated
Fri 09:48:00 PM 22.9674 109.4436 73° East  Level Estimated
Fri 09:49:00 PM 22.9841 109.5037 73° East  Level Estimated
Fri 09:50:00 PM 23.0008 109.5639 73° East  Level Estimated
Fri 09:51:00 PM 23.0174 109.6241 73° East  Level Estimated
Fri 09:52:00 PM 23.0341 109.6842 73° East  Level Estimated
Fri 09:53:00 PM 23.0507 109.7445 73° East  Level Estimated
Fri 09:54:00 PM 23.0672 109.8047 73° East  Level Estimated
Fri 09:55:00 PM 23.0838 109.8649 73° East  Level Estimated
Fri 09:56:00 PM 23.1003 109.9251 73° East  Level Estimated
Fri 09:57:00 PM 23.1168 109.9854 73° East  Level Estimated
Fri 09:58:00 PM 23.1333 110.0457 73° East  Level Estimated
Fri 09:59:00 PM 23.1498 110.1059 73° East  Level Estimated
Fri 10:00:00 PM 23.1663 110.1663 73° East  Level Estimated
Fri 10:01:00 PM 23.1827 110.2266 73° East  Level Estimated
Fri 10:02:00 PM 23.1991 110.2869 74° East  Level Estimated
Fri 10:03:00 PM 23.2155 110.3473 74° East  Level Estimated
Fri 10:04:00 PM 23.2318 110.4076 74° East  Level Estimated
Fri 10:05:00 PM 23.2481 110.4680 74° East  Level Estimated
Fri 10:06:00 PM 23.2644 110.5284 74° East  Level Estimated
Fri 10:07:00 PM 23.2807 110.5888 74° East  Level Estimated
Fri 10:08:00 PM 23.2970 110.6492 74° East  Level Estimated
Fri 10:09:00 PM 23.3132 110.7096 74° East  Level Estimated
Fri 10:10:00 PM 23.3294 110.7701 74° East  Level Estimated
Fri 10:11:00 PM 23.3456 110.8306 74° East  Level Estimated
Fri 10:12:00 PM 23.3618 110.8910 74° East  Level Estimated
Fri 10:13:00 PM 23.3779 110.9515 74° East  Level Estimated
Fri 10:14:00 PM 23.3941 111.0120 74° East  Level Estimated
Fri 10:15:00 PM 23.4102 111.0726 74° East  Level Estimated
Fri 10:16:00 PM 23.4262 111.1331 74° East  Level Estimated
Fri 10:17:00 PM 23.4423 111.1936 74° East  Level Estimated
Fri 10:18:00 PM 23.4567 111.2481 74° East  Level Estimated
Fri 10:19:00 PM 23.4567 111.2481 North  Level Estimated
Fri 10:20:00 PM 23.4567 111.2481 North  Level Estimated
Fri 10:21:00 PM 23.4567 111.2481 North  Level Estimated
Fri 10:22:00 PM 23.4567 111.2481 North  Level Estimated
Fri 10:23:00 PM 23.4567 111.2481 North  Level Estimated
Fri 10:24:00 PM 23.4567 111.2481 North  Level Estimated
Fri 10:25:00 PM 23.4567 111.2481 North  Level Estimated
Fri 10:26:00 PM 23.4567 111.2481 North  Level Estimated
Fri 10:27:00 PM 23.4567 111.2481 North  Level Estimated
Fri 10:28:00 PM 23.4567 111.2481 North  Level Estimated
Fri 10:29:00 PM 23.4567 111.2481 North  Level Estimated
Fri 10:30:00 PM 23.4567 111.2481 North  Level Estimated
Fri 10:31:00 PM 23.4567 111.2481 North  Level Estimated
Fri 10:32:00 PM 23.4567 111.2481 North  Level Estimated
Fri 10:33:00 PM 23.4567 111.2481 North  Level Estimated
Fri 10:34:00 PM 23.4567 111.2481 North  Level Estimated
Fri 10:35:00 PM 23.4567 111.2481 North  Level Estimated
Fri 10:36:00 PM 23.4567 111.2481 North  Level Estimated

Login

Don't have an account? Register now (free) for customized features, flight alerts, and more!